KPOB/POB METAR and TAF weather

Enter ICAO airport designator
Station Type Date Time Source
KPOB METAR 2019/08/25 17:56 UTC NOAA

KPOB 251756Z AUTO 06010G15KT 10SM OVC034 25/17 A3010 RMK AO2 SLP194 T02470169 10247 20187 57006 $


Station Type Date Time Source
KPOB Decoded METAR 2019/08/25 17:56 UTC NOAA

Station name not available
Aug 25, 2019 - 01:56 PM EDT / 2019.08.25 1756 UTC
Wind: from the ENE (060 degrees) at 12 MPH (10 KT) gusting to 17 MPH (15 KT):0
Visibility: 10 mile(s):0
Sky conditions: overcast
Temperature: 76.5 F (24.7 C)
Dew Point: 62.4 F (16.9 C)
Relative Humidity: 61%
Pressure (altimeter): 30.1 in. Hg (1019 hPa)
Pressure tendency: 0.02 inches (0.6 hPa) lower than three hours ago
ob: KPOB 251756Z AUTO 06010G15KT 10SM OVC034 25/17 A3010 RMK AO2 SLP194 T02470169 10247 20187 57006
cycle: 18

Station Type Date Time Source
KPOB TAF 2019/08/25 17:14 UTC NOAA

TAF KPOB 251700Z 2517/2623 06006KT 9999 OVC050 QNH3002INS
BECMG 2605/2606 03006KT 9999 SCT015 OVC050 QNH3003INS
BECMG 2610/2611 03006KT 9999 FEW010 SCT050 QNH3004INS TX27/2518Z TN19/2608Z

Example: see airport list